Weather at Shirabad Northeast Airport

Public forecast

Using degrees Celsius for public forecast. Weather courtesy of forecast.io.

Closest aviation weather report (METAR) to Shirabad Northeast Airport

Closest report is Termez Airport, 27.2 nm (50.4 km) SSE. Retrieved 2020/11/28 04:30 UTC (11 minutes ago):

UTST 280430Z 25012KT 9999 BKN066CB 07/02 Q1041 R88/CLRD70 NOSIG

Closest aviation forecast (TAF) to Shirabad Northeast Airport

Closest forecast is Termez Airport, 27.2 nm (50.4 km) SSE. Retrieved 2020-11-28 00:00 UTC (5 hours ago):

TAF UTST 272300Z 2800/2824 24016G26KT 3000 -DS SCT005 BKN050CB OVC100 TEMPO 2800/2811 26041G51KT 1000 SHRASN DS BKN003 OVC030CB